sensor_id;sensor_type;location;lat;lon;timestamp;P1;durP1;ratioP1;P2;durP2;ratioP2
42030;SDS011;27709;52.036;5.906;2023-01-29T00:01:06;24.75;;;13.20;;
42030;SDS011;27709;52.036;5.906;2023-01-29T00:03:32;21.75;;;12.90;;
42030;SDS011;27709;52.036;5.906;2023-01-29T00:05:58;24.45;;;13.55;;
42030;SDS011;27709;52.036;5.906;2023-01-29T00:08:24;26.10;;;14.20;;
42030;SDS011;27709;52.036;5.906;2023-01-29T00:10:51;22.98;;;12.82;;
42030;SDS011;27709;52.036;5.906;2023-01-29T00:13:16;25.67;;;14.05;;
42030;SDS011;27709;52.036;5.906;2023-01-29T00:15:42;24.40;;;13.70;;
42030;SDS011;27709;52.036;5.906;2023-01-29T00:18:18;24.77;;;13.20;;
42030;SDS011;27709;52.036;5.906;2023-01-29T00:20:43;25.08;;;13.30;;
42030;SDS011;27709;52.036;5.906;2023-01-29T00:23:09;23.73;;;12.93;;
42030;SDS011;27709;52.036;5.906;2023-01-29T00:25:34;23.50;;;13.60;;
42030;SDS011;27709;52.036;5.906;2023-01-29T00:28:00;24.83;;;14.18;;
42030;SDS011;27709;52.036;5.906;2023-01-29T00:30:25;24.23;;;13.65;;
42030;SDS011;27709;52.036;5.906;2023-01-29T00:32:51;24.08;;;13.68;;
42030;SDS011;27709;52.036;5.906;2023-01-29T00:35:17;25.17;;;14.18;;
42030;SDS011;27709;52.036;5.906;2023-01-29T00:37:43;26.27;;;14.20;;
42030;SDS011;27709;52.036;5.906;2023-01-29T00:40:09;23.88;;;13.98;;
42030;SDS011;27709;52.036;5.906;2023-01-29T00:42:35;26.10;;;14.70;;
42030;SDS011;27709;52.036;5.906;2023-01-29T00:45:19;27.73;;;14.68;;
42030;SDS011;27709;52.036;5.906;2023-01-29T00:47:44;26.65;;;14.68;;
42030;SDS011;27709;52.036;5.906;2023-01-29T00:50:10;24.90;;;13.82;;
42030;SDS011;27709;52.036;5.906;2023-01-29T00:52:37;27.60;;;14.85;;
42030;SDS011;27709;52.036;5.906;2023-01-29T00:55:05;27.95;;;14.95;;
42030;SDS011;27709;52.036;5.906;2023-01-29T00:57:32;26.60;;;14.88;;
42030;SDS011;27709;52.036;5.906;2023-01-29T00:59:59;24.58;;;14.20;;
42030;SDS011;27709;52.036;5.906;2023-01-29T01:02:25;26.33;;;15.00;;
42030;SDS011;27709;52.036;5.906;2023-01-29T01:05:11;28.35;;;14.73;;
42030;SDS011;27709;52.036;5.906;2023-01-29T01:07:41;28.70;;;15.40;;
42030;SDS011;27709;52.036;5.906;2023-01-29T01:10:09;27.80;;;15.63;;
42030;SDS011;27709;52.036;5.906;2023-01-29T01:12:47;27.05;;;14.05;;
42030;SDS011;27709;52.036;5.906;2023-01-29T01:15:13;26.92;;;15.02;;
42030;SDS011;27709;52.036;5.906;2023-01-29T01:17:38;27.40;;;14.82;;
42030;SDS011;27709;52.036;5.906;2023-01-29T01:20:04;26.10;;;14.48;;
42030;SDS011;27709;52.036;5.906;2023-01-29T01:22:30;24.73;;;14.32;;
42030;SDS011;27709;52.036;5.906;2023-01-29T01:24:55;27.55;;;14.30;;
42030;SDS011;27709;52.036;5.906;2023-01-29T01:27:21;29.45;;;15.68;;
42030;SDS011;27709;52.036;5.906;2023-01-29T01:29:47;24.65;;;14.20;;
42030;SDS011;27709;52.036;5.906;2023-01-29T01:32:12;27.08;;;14.55;;
42030;SDS011;27709;52.036;5.906;2023-01-29T01:34:39;26.65;;;14.77;;
42030;SDS011;27709;52.036;5.906;2023-01-29T01:37:05;23.85;;;13.77;;
42030;SDS011;27709;52.036;5.906;2023-01-29T01:39:30;26.77;;;14.27;;
42030;SDS011;27709;52.036;5.906;2023-01-29T01:41:56;27.25;;;14.93;;
42030;SDS011;27709;52.036;5.906;2023-01-29T01:50:26;26.05;;;13.95;;
42030;SDS011;27709;52.036;5.906;2023-01-29T01:52:57;28.38;;;15.00;;
42030;SDS011;27709;52.036;5.906;2023-01-29T01:55:27;28.17;;;14.95;;
42030;SDS011;27709;52.036;5.906;2023-01-29T01:57:58;26.17;;;14.55;;
42030;SDS011;27709;52.036;5.906;2023-01-29T02:00:35;26.05;;;15.13;;
42030;SDS011;27709;52.036;5.906;2023-01-29T02:03:01;26.98;;;14.73;;
42030;SDS011;27709;52.036;5.906;2023-01-29T02:05:46;26.98;;;14.57;;
42030;SDS011;27709;52.036;5.906;2023-01-29T02:08:38;27.80;;;15.35;;
42030;SDS011;27709;52.036;5.906;2023-01-29T02:11:52;25.48;;;13.38;;
42030;SDS011;27709;52.036;5.906;2023-01-29T02:14:17;29.25;;;14.88;;
42030;SDS011;27709;52.036;5.906;2023-01-29T02:16:43;33.65;;;15.73;;
42030;SDS011;27709;52.036;5.906;2023-01-29T02:19:14;27.15;;;14.55;;
42030;SDS011;27709;52.036;5.906;2023-01-29T02:22:00;28.92;;;15.55;;
42030;SDS011;27709;52.036;5.906;2023-01-29T02:27:26;27.40;;;15.30;;
42030;SDS011;27709;52.036;5.906;2023-01-29T02:30:08;28.45;;;14.63;;
42030;SDS011;27709;52.036;5.906;2023-01-29T02:35:28;28.10;;;14.00;;
42030;SDS011;27709;52.036;5.906;2023-01-29T02:38:12;29.83;;;15.50;;
42030;SDS011;27709;52.036;5.906;2023-01-29T02:40:52;27.30;;;15.15;;
42030;SDS011;27709;52.036;5.906;2023-01-29T02:48:39;28.67;;;15.15;;
42030;SDS011;27709;52.036;5.906;2023-01-29T02:51:34;28.80;;;14.88;;
42030;SDS011;27709;52.036;5.906;2023-01-29T02:54:47;27.77;;;14.98;;
42030;SDS011;27709;52.036;5.906;2023-01-29T02:59:44;29.10;;;15.32;;
42030;SDS011;27709;52.036;5.906;2023-01-29T03:02:16;27.17;;;14.80;;
42030;SDS011;27709;52.036;5.906;2023-01-29T03:04:51;27.60;;;14.43;;
42030;SDS011;27709;52.036;5.906;2023-01-29T03:07:27;28.08;;;15.35;;
42030;SDS011;27709;52.036;5.906;2023-01-29T03:10:29;26.20;;;14.80;;
42030;SDS011;27709;52.036;5.906;2023-01-29T03:13:18;30.38;;;14.93;;
42030;SDS011;27709;52.036;5.906;2023-01-29T03:15:51;27.20;;;14.68;;
42030;SDS011;27709;52.036;5.906;2023-01-29T03:18:30;28.75;;;14.77;;
42030;SDS011;27709;52.036;5.906;2023-01-29T03:21:07;29.17;;;15.25;;
42030;SDS011;27709;52.036;5.906;2023-01-29T03:23:55;29.23;;;14.75;;
42030;SDS011;27709;52.036;5.906;2023-01-29T03:26:41;27.10;;;14.65;;
42030;SDS011;27709;52.036;5.906;2023-01-29T03:29:28;29.40;;;15.57;;
42030;SDS011;27709;52.036;5.906;2023-01-29T03:32:14;29.65;;;15.95;;
42030;SDS011;27709;52.036;5.906;2023-01-29T03:34:47;28.80;;;15.68;;
42030;SDS011;27709;52.036;5.906;2023-01-29T03:37:19;27.98;;;15.35;;
42030;SDS011;27709;52.036;5.906;2023-01-29T03:40:07;28.00;;;15.45;;
42030;SDS011;27709;52.036;5.906;2023-01-29T03:42:48;29.63;;;16.02;;
42030;SDS011;27709;52.036;5.906;2023-01-29T03:45:23;30.70;;;15.77;;
42030;SDS011;27709;52.036;5.906;2023-01-29T03:51:21;30.75;;;17.05;;
42030;SDS011;27709;52.036;5.906;2023-01-29T03:56:52;33.70;;;17.40;;
42030;SDS011;27709;52.036;5.906;2023-01-29T03:59:46;35.90;;;18.80;;
42030;SDS011;27709;52.036;5.906;2023-01-29T04:02:23;29.73;;;16.05;;
42030;SDS011;27709;52.036;5.906;2023-01-29T04:04:58;29.50;;;16.48;;
42030;SDS011;27709;52.036;5.906;2023-01-29T04:07:29;32.42;;;17.60;;
42030;SDS011;27709;52.036;5.906;2023-01-29T04:10:04;31.95;;;16.52;;
42030;SDS011;27709;52.036;5.906;2023-01-29T04:12:45;33.08;;;17.17;;
42030;SDS011;27709;52.036;5.906;2023-01-29T04:15:16;31.27;;;17.42;;
42030;SDS011;27709;52.036;5.906;2023-01-29T04:17:48;29.35;;;16.65;;
42030;SDS011;27709;52.036;5.906;2023-01-29T04:20:15;32.33;;;17.55;;
42030;SDS011;27709;52.036;5.906;2023-01-29T04:22:42;31.60;;;17.50;;
42030;SDS011;27709;52.036;5.906;2023-01-29T04:25:11;30.00;;;16.48;;
42030;SDS011;27709;52.036;5.906;2023-01-29T04:33:43;34.20;;;19.25;;
42030;SDS011;27709;52.036;5.906;2023-01-29T04:36:28;31.88;;;17.13;;
42030;SDS011;27709;52.036;5.906;2023-01-29T04:39:33;33.95;;;18.55;;
42030;SDS011;27709;52.036;5.906;2023-01-29T04:50:16;32.35;;;17.98;;
42030;SDS011;27709;52.036;5.906;2023-01-29T05:00:42;35.33;;;19.75;;
42030;SDS011;27709;52.036;5.906;2023-01-29T05:03:12;37.17;;;18.73;;
42030;SDS011;27709;52.036;5.906;2023-01-29T05:05:40;31.30;;;17.05;;
42030;SDS011;27709;52.036;5.906;2023-01-29T05:08:09;34.60;;;17.85;;
42030;SDS011;27709;52.036;5.906;2023-01-29T05:10:37;35.97;;;18.45;;
42030;SDS011;27709;52.036;5.906;2023-01-29T05:13:04;36.55;;;19.45;;
42030;SDS011;27709;52.036;5.906;2023-01-29T05:15:34;32.88;;;18.15;;
42030;SDS011;27709;52.036;5.906;2023-01-29T05:18:06;33.25;;;18.35;;
42030;SDS011;27709;52.036;5.906;2023-01-29T05:20:33;37.90;;;19.52;;
42030;SDS011;27709;52.036;5.906;2023-01-29T05:23:01;33.72;;;18.00;;
42030;SDS011;27709;52.036;5.906;2023-01-29T05:25:29;35.05;;;18.52;;
42030;SDS011;27709;52.036;5.906;2023-01-29T05:27:56;34.20;;;18.05;;
42030;SDS011;27709;52.036;5.906;2023-01-29T05:30:41;33.35;;;18.02;;
42030;SDS011;27709;52.036;5.906;2023-01-29T05:33:12;35.40;;;18.05;;
42030;SDS011;27709;52.036;5.906;2023-01-29T05:35:54;32.22;;;18.00;;
42030;SDS011;27709;52.036;5.906;2023-01-29T05:38:22;31.75;;;17.70;;
42030;SDS011;27709;52.036;5.906;2023-01-29T05:40:47;33.42;;;18.05;;
42030;SDS011;27709;52.036;5.906;2023-01-29T05:43:14;32.63;;;17.67;;
42030;SDS011;27709;52.036;5.906;2023-01-29T05:45:41;33.90;;;17.33;;
42030;SDS011;27709;52.036;5.906;2023-01-29T05:48:15;35.78;;;18.95;;
42030;SDS011;27709;52.036;5.906;2023-01-29T05:50:40;34.28;;;18.38;;
42030;SDS011;27709;52.036;5.906;2023-01-29T05:53:06;33.90;;;18.83;;
42030;SDS011;27709;52.036;5.906;2023-01-29T05:55:33;34.35;;;18.52;;
42030;SDS011;27709;52.036;5.906;2023-01-29T05:57:58;33.00;;;17.83;;
42030;SDS011;27709;52.036;5.906;2023-01-29T06:00:24;34.25;;;18.73;;
42030;SDS011;27709;52.036;5.906;2023-01-29T06:02:50;34.38;;;19.02;;
42030;SDS011;27709;52.036;5.906;2023-01-29T06:05:15;33.35;;;18.83;;
42030;SDS011;27709;52.036;5.906;2023-01-29T06:07:41;36.13;;;19.55;;
42030;SDS011;27709;52.036;5.906;2023-01-29T06:10:10;34.58;;;18.73;;
42030;SDS011;27709;52.036;5.906;2023-01-29T06:12:40;34.50;;;19.65;;
42030;SDS011;27709;52.036;5.906;2023-01-29T06:15:07;36.65;;;19.35;;
42030;SDS011;27709;52.036;5.906;2023-01-29T06:17:32;39.15;;;21.05;;
42030;SDS011;27709;52.036;5.906;2023-01-29T06:19:58;39.10;;;20.50;;
42030;SDS011;27709;52.036;5.906;2023-01-29T06:22:24;41.20;;;21.98;;
42030;SDS011;27709;52.036;5.906;2023-01-29T06:24:49;36.40;;;20.42;;
42030;SDS011;27709;52.036;5.906;2023-01-29T06:27:30;35.97;;;19.33;;
42030;SDS011;27709;52.036;5.906;2023-01-29T06:29:56;35.90;;;20.25;;
42030;SDS011;27709;52.036;5.906;2023-01-29T06:32:21;39.05;;;20.70;;
42030;SDS011;27709;52.036;5.906;2023-01-29T06:34:47;40.58;;;21.52;;
42030;SDS011;27709;52.036;5.906;2023-01-29T06:37:12;39.78;;;20.92;;
42030;SDS011;27709;52.036;5.906;2023-01-29T06:39:38;37.63;;;20.92;;
42030;SDS011;27709;52.036;5.906;2023-01-29T06:42:03;42.38;;;22.02;;
42030;SDS011;27709;52.036;5.906;2023-01-29T06:44:29;41.05;;;23.10;;
42030;SDS011;27709;52.036;5.906;2023-01-29T06:46:54;37.30;;;21.10;;
42030;SDS011;27709;52.036;5.906;2023-01-29T06:49:20;40.00;;;22.60;;
42030;SDS011;27709;52.036;5.906;2023-01-29T06:51:45;41.05;;;21.80;;
42030;SDS011;27709;52.036;5.906;2023-01-29T06:54:11;40.85;;;23.02;;
42030;SDS011;27709;52.036;5.906;2023-01-29T06:56:36;38.35;;;21.55;;
42030;SDS011;27709;52.036;5.906;2023-01-29T06:59:02;42.22;;;23.23;;
42030;SDS011;27709;52.036;5.906;2023-01-29T07:01:28;37.53;;;21.52;;
42030;SDS011;27709;52.036;5.906;2023-01-29T07:03:53;39.28;;;21.50;;
42030;SDS011;27709;52.036;5.906;2023-01-29T07:06:19;37.83;;;21.15;;
42030;SDS011;27709;52.036;5.906;2023-01-29T07:08:44;39.65;;;21.63;;
42030;SDS011;27709;52.036;5.906;2023-01-29T07:11:10;39.05;;;21.10;;
42030;SDS011;27709;52.036;5.906;2023-01-29T07:13:36;39.00;;;20.75;;
42030;SDS011;27709;52.036;5.906;2023-01-29T07:16:02;35.55;;;20.10;;
42030;SDS011;27709;52.036;5.906;2023-01-29T07:18:30;39.83;;;21.55;;
42030;SDS011;27709;52.036;5.906;2023-01-29T07:20:56;41.05;;;21.73;;
42030;SDS011;27709;52.036;5.906;2023-01-29T07:23:22;39.00;;;20.10;;
42030;SDS011;27709;52.036;5.906;2023-01-29T07:25:48;36.85;;;20.38;;
42030;SDS011;27709;52.036;5.906;2023-01-29T07:28:17;37.13;;;20.02;;
42030;SDS011;27709;52.036;5.906;2023-01-29T07:30:44;45.55;;;22.77;;
42030;SDS011;27709;52.036;5.906;2023-01-29T07:33:10;38.92;;;20.95;;
42030;SDS011;27709;52.036;5.906;2023-01-29T07:35:36;36.00;;;21.02;;
42030;SDS011;27709;52.036;5.906;2023-01-29T07:38:06;36.08;;;20.23;;
42030;SDS011;27709;52.036;5.906;2023-01-29T07:40:33;39.75;;;21.02;;
42030;SDS011;27709;52.036;5.906;2023-01-29T07:42:59;36.00;;;19.92;;
42030;SDS011;27709;52.036;5.906;2023-01-29T07:45:26;36.67;;;20.63;;
42030;SDS011;27709;52.036;5.906;2023-01-29T07:47:55;38.80;;;20.48;;
42030;SDS011;27709;52.036;5.906;2023-01-29T07:50:22;37.95;;;20.25;;
42030;SDS011;27709;52.036;5.906;2023-01-29T07:52:48;37.80;;;20.20;;
42030;SDS011;27709;52.036;5.906;2023-01-29T07:55:14;35.28;;;19.67;;
42030;SDS011;27709;52.036;5.906;2023-01-29T07:57:40;36.75;;;20.27;;
42030;SDS011;27709;52.036;5.906;2023-01-29T08:00:06;40.20;;;21.52;;
42030;SDS011;27709;52.036;5.906;2023-01-29T08:02:32;37.60;;;20.27;;
42030;SDS011;27709;52.036;5.906;2023-01-29T08:04:58;41.30;;;21.88;;
42030;SDS011;27709;52.036;5.906;2023-01-29T08:07:23;39.15;;;20.80;;
42030;SDS011;27709;52.036;5.906;2023-01-29T08:09:49;34.72;;;19.85;;
42030;SDS011;27709;52.036;5.906;2023-01-29T08:12:14;40.90;;;21.38;;
42030;SDS011;27709;52.036;5.906;2023-01-29T08:14:40;38.03;;;20.60;;
42030;SDS011;27709;52.036;5.906;2023-01-29T08:17:06;36.65;;;20.05;;
42030;SDS011;27709;52.036;5.906;2023-01-29T08:19:31;38.00;;;20.35;;
42030;SDS011;27709;52.036;5.906;2023-01-29T08:21:57;38.63;;;21.48;;
42030;SDS011;27709;52.036;5.906;2023-01-29T08:24:22;37.88;;;21.67;;
42030;SDS011;27709;52.036;5.906;2023-01-29T08:26:48;38.03;;;20.70;;
42030;SDS011;27709;52.036;5.906;2023-01-29T08:29:13;37.83;;;21.05;;
42030;SDS011;27709;52.036;5.906;2023-01-29T08:31:39;41.45;;;21.75;;
42030;SDS011;27709;52.036;5.906;2023-01-29T08:34:04;35.97;;;20.35;;
42030;SDS011;27709;52.036;5.906;2023-01-29T08:36:30;39.47;;;22.00;;
42030;SDS011;27709;52.036;5.906;2023-01-29T08:38:55;38.65;;;20.42;;
42030;SDS011;27709;52.036;5.906;2023-01-29T08:41:21;38.33;;;20.77;;
42030;SDS011;27709;52.036;5.906;2023-01-29T08:43:46;36.40;;;20.60;;
42030;SDS011;27709;52.036;5.906;2023-01-29T08:46:12;34.65;;;19.20;;
42030;SDS011;27709;52.036;5.906;2023-01-29T08:48:38;35.55;;;19.98;;
42030;SDS011;27709;52.036;5.906;2023-01-29T08:51:04;34.88;;;20.40;;
42030;SDS011;27709;52.036;5.906;2023-01-29T08:53:30;36.80;;;20.65;;
42030;SDS011;27709;52.036;5.906;2023-01-29T08:55:56;38.60;;;21.15;;
42030;SDS011;27709;52.036;5.906;2023-01-29T08:58:21;36.28;;;19.92;;
42030;SDS011;27709;52.036;5.906;2023-01-29T09:00:47;35.08;;;19.30;;
42030;SDS011;27709;52.036;5.906;2023-01-29T09:03:12;35.63;;;19.88;;
42030;SDS011;27709;52.036;5.906;2023-01-29T09:05:40;33.55;;;19.05;;
42030;SDS011;27709;52.036;5.906;2023-01-29T09:08:06;33.80;;;19.15;;
42030;SDS011;27709;52.036;5.906;2023-01-29T09:10:33;35.45;;;20.63;;
42030;SDS011;27709;52.036;5.906;2023-01-29T09:12:59;33.63;;;19.15;;
42030;SDS011;27709;52.036;5.906;2023-01-29T09:15:24;35.42;;;20.15;;
42030;SDS011;27709;52.036;5.906;2023-01-29T09:17:50;34.90;;;20.23;;
42030;SDS011;27709;52.036;5.906;2023-01-29T09:20:16;33.28;;;18.73;;
42030;SDS011;27709;52.036;5.906;2023-01-29T09:22:43;31.08;;;17.88;;
42030;SDS011;27709;52.036;5.906;2023-01-29T09:25:09;35.75;;;19.80;;
42030;SDS011;27709;52.036;5.906;2023-01-29T09:27:35;33.60;;;19.15;;
42030;SDS011;27709;52.036;5.906;2023-01-29T09:30:01;34.03;;;18.52;;
42030;SDS011;27709;52.036;5.906;2023-01-29T09:32:27;30.92;;;17.77;;
42030;SDS011;27709;52.036;5.906;2023-01-29T09:34:54;32.58;;;20.02;;
42030;SDS011;27709;52.036;5.906;2023-01-29T09:37:20;34.75;;;20.80;;
42030;SDS011;27709;52.036;5.906;2023-01-29T09:39:47;33.53;;;18.85;;
42030;SDS011;27709;52.036;5.906;2023-01-29T09:42:23;29.45;;;18.05;;
42030;SDS011;27709;52.036;5.906;2023-01-29T09:45:14;28.45;;;16.90;;
42030;SDS011;27709;52.036;5.906;2023-01-29T09:47:48;30.00;;;17.30;;
42030;SDS011;27709;52.036;5.906;2023-01-29T09:50:19;27.20;;;16.58;;
42030;SDS011;27709;52.036;5.906;2023-01-29T09:53:10;28.15;;;17.48;;
42030;SDS011;27709;52.036;5.906;2023-01-29T09:56:10;32.25;;;18.48;;
42030;SDS011;27709;52.036;5.906;2023-01-29T09:58:38;28.55;;;16.85;;
42030;SDS011;27709;52.036;5.906;2023-01-29T10:08:02;30.23;;;17.95;;
42030;SDS011;27709;52.036;5.906;2023-01-29T10:11:02;31.38;;;16.77;;
42030;SDS011;27709;52.036;5.906;2023-01-29T10:19:21;26.85;;;16.63;;
42030;SDS011;27709;52.036;5.906;2023-01-29T10:27:18;29.38;;;17.02;;
42030;SDS011;27709;52.036;5.906;2023-01-29T10:29:44;29.83;;;16.60;;
42030;SDS011;27709;52.036;5.906;2023-01-29T10:32:15;26.30;;;15.15;;
42030;SDS011;27709;52.036;5.906;2023-01-29T10:34:51;30.33;;;17.80;;
42030;SDS011;27709;52.036;5.906;2023-01-29T10:37:19;29.20;;;16.90;;
42030;SDS011;27709;52.036;5.906;2023-01-29T10:39:48;27.77;;;17.13;;
42030;SDS011;27709;52.036;5.906;2023-01-29T10:42:16;24.95;;;15.18;;
42030;SDS011;27709;52.036;5.906;2023-01-29T10:55:38;25.63;;;16.45;;
42030;SDS011;27709;52.036;5.906;2023-01-29T10:58:29;30.60;;;16.48;;
42030;SDS011;27709;52.036;5.906;2023-01-29T11:01:08;26.25;;;15.77;;
42030;SDS011;27709;52.036;5.906;2023-01-29T11:03:34;25.45;;;15.13;;
42030;SDS011;27709;52.036;5.906;2023-01-29T11:06:08;23.70;;;15.15;;
42030;SDS011;27709;52.036;5.906;2023-01-29T11:11:21;25.10;;;15.30;;
42030;SDS011;27709;52.036;5.906;2023-01-29T11:14:07;25.38;;;15.18;;
42030;SDS011;27709;52.036;5.906;2023-01-29T11:16:41;25.88;;;15.85;;
42030;SDS011;27709;52.036;5.906;2023-01-29T11:19:08;24.55;;;14.77;;
42030;SDS011;27709;52.036;5.906;2023-01-29T11:21:48;25.48;;;16.33;;
42030;SDS011;27709;52.036;5.906;2023-01-29T11:24:37;24.90;;;14.85;;
42030;SDS011;27709;52.036;5.906;2023-01-29T11:27:12;26.77;;;17.13;;
42030;SDS011;27709;52.036;5.906;2023-01-29T11:29:49;27.25;;;17.08;;
42030;SDS011;27709;52.036;5.906;2023-01-29T11:37:44;24.45;;;14.68;;
42030;SDS011;27709;52.036;5.906;2023-01-29T11:42:42;26.27;;;16.00;;
42030;SDS011;27709;52.036;5.906;2023-01-29T11:47:51;23.58;;;15.05;;
42030;SDS011;27709;52.036;5.906;2023-01-29T11:50:20;26.08;;;17.20;;
42030;SDS011;27709;52.036;5.906;2023-01-29T11:52:50;24.05;;;16.63;;
42030;SDS011;27709;52.036;5.906;2023-01-29T11:55:17;27.35;;;17.17;;
42030;SDS011;27709;52.036;5.906;2023-01-29T11:57:51;24.48;;;15.55;;
42030;SDS011;27709;52.036;5.906;2023-01-29T12:00:28;25.63;;;17.08;;
42030;SDS011;27709;52.036;5.906;2023-01-29T12:05:58;26.23;;;16.15;;
42030;SDS011;27709;52.036;5.906;2023-01-29T12:08:36;28.02;;;16.20;;
42030;SDS011;27709;52.036;5.906;2023-01-29T12:11:23;27.73;;;17.63;;
42030;SDS011;27709;52.036;5.906;2023-01-29T12:13:53;26.08;;;16.80;;
42030;SDS011;27709;52.036;5.906;2023-01-29T12:19:03;31.30;;;19.23;;
42030;SDS011;27709;52.036;5.906;2023-01-29T12:21:34;32.78;;;20.27;;
42030;SDS011;27709;52.036;5.906;2023-01-29T12:24:32;31.45;;;19.23;;
42030;SDS011;27709;52.036;5.906;2023-01-29T12:27:06;30.13;;;19.15;;
42030;SDS011;27709;52.036;5.906;2023-01-29T12:29:41;28.63;;;18.42;;
42030;SDS011;27709;52.036;5.906;2023-01-29T12:32:25;30.67;;;19.00;;
42030;SDS011;27709;52.036;5.906;2023-01-29T12:35:13;28.48;;;19.58;;
42030;SDS011;27709;52.036;5.906;2023-01-29T12:37:53;32.58;;;19.75;;
42030;SDS011;27709;52.036;5.906;2023-01-29T12:40:40;34.70;;;23.58;;
42030;SDS011;27709;52.036;5.906;2023-01-29T12:43:18;29.63;;;17.95;;
42030;SDS011;27709;52.036;5.906;2023-01-29T12:45:57;35.60;;;23.17;;
42030;SDS011;27709;52.036;5.906;2023-01-29T12:48:26;31.13;;;19.95;;
42030;SDS011;27709;52.036;5.906;2023-01-29T12:51:02;32.97;;;21.02;;
42030;SDS011;27709;52.036;5.906;2023-01-29T12:53:44;30.50;;;19.88;;
42030;SDS011;27709;52.036;5.906;2023-01-29T12:59:04;32.40;;;20.63;;
42030;SDS011;27709;52.036;5.906;2023-01-29T13:02:26;32.67;;;20.63;;
42030;SDS011;27709;52.036;5.906;2023-01-29T13:04:37;35.58;;;23.02;;
42030;SDS011;27709;52.036;5.906;2023-01-29T13:07:13;32.20;;;20.55;;
42030;SDS011;27709;52.036;5.906;2023-01-29T13:09:46;36.72;;;22.60;;
42030;SDS011;27709;52.036;5.906;2023-01-29T13:12:15;38.17;;;23.00;;
42030;SDS011;27709;52.036;5.906;2023-01-29T13:14:52;35.97;;;20.70;;
42030;SDS011;27709;52.036;5.906;2023-01-29T13:17:38;38.83;;;24.13;;
42030;SDS011;27709;52.036;5.906;2023-01-29T13:20:17;36.42;;;22.77;;
42030;SDS011;27709;52.036;5.906;2023-01-29T13:22:53;39.47;;;24.42;;
42030;SDS011;27709;52.036;5.906;2023-01-29T13:25:23;37.42;;;22.98;;
42030;SDS011;27709;52.036;5.906;2023-01-29T13:27:48;41.60;;;24.30;;
42030;SDS011;27709;52.036;5.906;2023-01-29T13:30:28;40.00;;;25.70;;
42030;SDS011;27709;52.036;5.906;2023-01-29T13:32:55;40.65;;;23.98;;
42030;SDS011;27709;52.036;5.906;2023-01-29T13:35:32;41.35;;;25.73;;
42030;SDS011;27709;52.036;5.906;2023-01-29T13:38:01;39.50;;;22.60;;
42030;SDS011;27709;52.036;5.906;2023-01-29T13:40:29;38.03;;;23.50;;
42030;SDS011;27709;52.036;5.906;2023-01-29T13:42:58;38.03;;;23.42;;
42030;SDS011;27709;52.036;5.906;2023-01-29T13:45:32;38.67;;;23.13;;
42030;SDS011;27709;52.036;5.906;2023-01-29T13:48:08;44.78;;;24.25;;
42030;SDS011;27709;52.036;5.906;2023-01-29T13:50:42;40.10;;;24.85;;
42030;SDS011;27709;52.036;5.906;2023-01-29T13:53:17;39.90;;;24.70;;
42030;SDS011;27709;52.036;5.906;2023-01-29T13:55:51;41.03;;;24.25;;
42030;SDS011;27709;52.036;5.906;2023-01-29T13:58:51;37.25;;;21.98;;
42030;SDS011;27709;52.036;5.906;2023-01-29T14:01:03;35.00;;;21.35;;
42030;SDS011;27709;52.036;5.906;2023-01-29T14:05:58;36.13;;;21.13;;
42030;SDS011;27709;52.036;5.906;2023-01-29T14:13:40;38.67;;;23.23;;
42030;SDS011;27709;52.036;5.906;2023-01-29T14:18:48;39.80;;;23.15;;
42030;SDS011;27709;52.036;5.906;2023-01-29T14:21:20;35.45;;;21.08;;
42030;SDS011;27709;52.036;5.906;2023-01-29T14:23:52;37.47;;;22.85;;
42030;SDS011;27709;52.036;5.906;2023-01-29T14:34:19;37.63;;;21.58;;
42030;SDS011;27709;52.036;5.906;2023-01-29T14:36:49;41.65;;;24.73;;
42030;SDS011;27709;52.036;5.906;2023-01-29T14:39:27;39.40;;;22.58;;
42030;SDS011;27709;52.036;5.906;2023-01-29T14:42:42;37.72;;;22.95;;
42030;SDS011;27709;52.036;5.906;2023-01-29T14:45:07;36.92;;;20.65;;
42030;SDS011;27709;52.036;5.906;2023-01-29T14:58:38;38.67;;;22.50;;
42030;SDS011;27709;52.036;5.906;2023-01-29T15:01:14;36.83;;;22.35;;
42030;SDS011;27709;52.036;5.906;2023-01-29T15:03:54;41.75;;;24.17;;
42030;SDS011;27709;52.036;5.906;2023-01-29T15:06:32;41.83;;;22.75;;
42030;SDS011;27709;52.036;5.906;2023-01-29T15:11:48;41.67;;;24.70;;
42030;SDS011;27709;52.036;5.906;2023-01-29T15:14:31;43.35;;;25.42;;
42030;SDS011;27709;52.036;5.906;2023-01-29T15:19:43;42.35;;;24.27;;
42030;SDS011;27709;52.036;5.906;2023-01-29T15:22:15;41.08;;;24.05;;
42030;SDS011;27709;52.036;5.906;2023-01-29T15:24:42;37.40;;;22.20;;
42030;SDS011;27709;52.036;5.906;2023-01-29T15:27:16;41.67;;;24.60;;
42030;SDS011;27709;52.036;5.906;2023-01-29T15:29:46;43.65;;;24.50;;
42030;SDS011;27709;52.036;5.906;2023-01-29T15:32:23;46.15;;;26.25;;
42030;SDS011;27709;52.036;5.906;2023-01-29T15:34:54;49.10;;;27.52;;
42030;SDS011;27709;52.036;5.906;2023-01-29T15:37:26;42.13;;;24.17;;
42030;SDS011;27709;52.036;5.906;2023-01-29T15:39:53;47.70;;;26.23;;
42030;SDS011;27709;52.036;5.906;2023-01-29T15:42:20;42.90;;;23.88;;
42030;SDS011;27709;52.036;5.906;2023-01-29T15:44:49;44.58;;;25.52;;
42030;SDS011;27709;52.036;5.906;2023-01-29T15:47:16;42.38;;;25.13;;
42030;SDS011;27709;52.036;5.906;2023-01-29T15:49:43;45.28;;;24.90;;
42030;SDS011;27709;52.036;5.906;2023-01-29T15:52:17;46.85;;;26.40;;
42030;SDS011;27709;52.036;5.906;2023-01-29T15:54:47;46.60;;;27.20;;
42030;SDS011;27709;52.036;5.906;2023-01-29T15:57:17;40.38;;;23.33;;
42030;SDS011;27709;52.036;5.906;2023-01-29T15:59:49;43.55;;;24.77;;
42030;SDS011;27709;52.036;5.906;2023-01-29T16:02:26;44.63;;;26.23;;
42030;SDS011;27709;52.036;5.906;2023-01-29T16:05:15;40.20;;;23.92;;
42030;SDS011;27709;52.036;5.906;2023-01-29T16:07:43;45.47;;;25.20;;
42030;SDS011;27709;52.036;5.906;2023-01-29T16:10:19;46.10;;;26.25;;
42030;SDS011;27709;52.036;5.906;2023-01-29T16:12:48;42.20;;;24.02;;
42030;SDS011;27709;52.036;5.906;2023-01-29T16:18:18;40.70;;;22.70;;
42030;SDS011;27709;52.036;5.906;2023-01-29T16:20:46;41.05;;;23.08;;
42030;SDS011;27709;52.036;5.906;2023-01-29T16:23:17;45.65;;;24.75;;
42030;SDS011;27709;52.036;5.906;2023-01-29T16:25:46;43.55;;;24.35;;
42030;SDS011;27709;52.036;5.906;2023-01-29T16:28:13;44.97;;;26.35;;
42030;SDS011;27709;52.036;5.906;2023-01-29T16:30:39;45.10;;;24.25;;
42030;SDS011;27709;52.036;5.906;2023-01-29T16:33:06;49.33;;;26.70;;
42030;SDS011;27709;52.036;5.906;2023-01-29T16:35:36;43.13;;;23.67;;
42030;SDS011;27709;52.036;5.906;2023-01-29T16:38:03;43.47;;;24.45;;
42030;SDS011;27709;52.036;5.906;2023-01-29T16:40:31;41.55;;;22.83;;
42030;SDS011;27709;52.036;5.906;2023-01-29T16:46:12;48.15;;;26.67;;
42030;SDS011;27709;52.036;5.906;2023-01-29T16:48:52;39.72;;;21.48;;
42030;SDS011;27709;52.036;5.906;2023-01-29T16:51:25;42.20;;;23.30;;
42030;SDS011;27709;52.036;5.906;2023-01-29T16:56:31;43.22;;;22.92;;
42030;SDS011;27709;52.036;5.906;2023-01-29T16:59:02;42.47;;;24.30;;
42030;SDS011;27709;52.036;5.906;2023-01-29T17:01:29;45.70;;;24.75;;
42030;SDS011;27709;52.036;5.906;2023-01-29T17:06:35;48.47;;;25.90;;
42030;SDS011;27709;52.036;5.906;2023-01-29T17:09:07;47.53;;;25.42;;
42030;SDS011;27709;52.036;5.906;2023-01-29T17:11:43;45.22;;;24.13;;